Time;durP1;ratioP1;P1;durP2;ratioP2;P2;SDS_P1;SDS_P2;PMS_P1;PMS_P2;Temp;Humidity;BMP_temperature;BMP_pressure;BME280_temperature;BME280_humidity;BME280_pressure;Samples;Min_cycle;Max_cycle;Signal;HPM_P1;HPM_P2
2023/09/29 00:00:51;;;;;;;4.10;2.90;;;19.50;43.30;;;;;;4974136;28;20238;-52
2023/09/29 00:03:17;;;;;;;3.10;1.93;;;19.50;43.40;;;;;;4974132;28;20714;-51
2023/09/29 00:05:43;;;;;;;5.13;3.60;;;19.50;43.60;;;;;;4974123;28;20198;-52
2023/09/29 00:08:11;;;;;;;4.38;3.20;;;19.40;43.10;;;;;;4973803;28;20199;-52
2023/09/29 00:10:39;;;;;;;3.13;2.78;;;19.40;43.10;;;;;;4974141;28;20798;-53
2023/09/29 00:13:07;;;;;;;3.10;2.35;;;19.40;43.20;;;;;;4973843;28;20200;-52
2023/09/29 00:15:33;;;;;;;4.40;3.10;;;19.30;43.10;;;;;;4973873;28;20259;-53
2023/09/29 00:18:00;;;;;;;3.00;1.85;;;19.30;43.10;;;;;;4973772;28;20223;-54
2023/09/29 00:20:26;;;;;;;4.50;2.65;;;19.30;42.90;;;;;;4973758;28;20175;-53
2023/09/29 00:22:53;;;;;;;4.43;3.43;;;19.30;43.20;;;;;;4973468;28;20227;-52
2023/09/29 00:25:20;;;;;;;3.28;2.25;;;19.30;43.00;;;;;;4973672;28;20423;-53
2023/09/29 00:27:45;;;;;;;4.43;3.40;;;19.30;43.30;;;;;;4973445;28;20579;-51
2023/09/29 00:30:14;;;;;;;2.30;2.10;;;19.20;43.50;;;;;;4973566;28;20191;-54
2023/09/29 00:32:50;;;;;;;2.15;1.95;;;19.20;43.50;;;;;;4973522;28;20180;-52
2023/09/29 00:35:24;;;;;;;4.85;4.15;;;19.20;43.20;;;;;;4973478;28;20211;-53
2023/09/29 00:37:51;;;;;;;4.07;3.05;;;19.20;43.60;;;;;;4973625;28;20199;-53
2023/09/29 00:40:17;;;;;;;4.03;2.28;;;19.20;43.40;;;;;;4973436;28;20180;-53
2023/09/29 00:42:44;;;;;;;5.80;3.72;;;19.20;43.40;;;;;;4973192;28;20643;-52
2023/09/29 00:45:10;;;;;;;2.88;1.85;;;19.20;43.70;;;;;;4973374;28;20194;-51
2023/09/29 00:47:37;;;;;;;3.05;2.17;;;19.20;43.40;;;;;;4973217;28;20191;-53
2023/09/29 00:50:09;;;;;;;3.42;3.15;;;19.20;43.50;;;;;;4973284;28;20199;-56
2023/09/29 00:52:40;;;;;;;2.45;1.77;;;19.10;43.60;;;;;;4973346;28;20176;-55
2023/09/29 00:55:16;;;;;;;3.20;2.10;;;19.10;43.30;;;;;;4973291;28;20203;-55
2023/09/29 00:57:44;;;;;;;4.53;2.22;;;19.10;43.40;;;;;;4973265;28;20195;-53
2023/09/29 01:00:36;;;;;;;4.45;2.80;;;19.10;43.30;;;;;;4973209;28;20191;-54
2023/09/29 01:02:59;;;;;;;3.17;2.63;;;19.10;43.20;;;;;;4972645;28;20243;-55
2023/09/29 01:05:26;;;;;;;4.13;2.55;;;19.00;43.20;;;;;;4973274;28;20606;-52
2023/09/29 01:07:52;;;;;;;2.20;1.45;;;19.00;43.10;;;;;;4973158;28;20188;-54
2023/09/29 01:10:18;;;;;;;5.37;2.73;;;19.00;43.20;;;;;;4973103;28;20180;-55
2023/09/29 01:12:44;;;;;;;4.87;2.83;;;19.00;43.00;;;;;;4972939;28;20403;-55
2023/09/29 01:15:15;;;;;;;3.03;2.28;;;19.00;43.20;;;;;;4972984;28;20458;-54
2023/09/29 01:17:46;;;;;;;6.20;3.58;;;19.00;43.40;;;;;;4973108;28;20235;-53
2023/09/29 01:20:30;;;;;;;3.28;2.95;;;18.90;43.60;;;;;;4973060;28;20519;-55
2023/09/29 01:22:57;;;;;;;5.72;1.90;;;18.90;43.50;;;;;;4972987;28;20176;-54
2023/09/29 01:25:23;;;;;;;3.47;2.10;;;18.90;43.70;;;;;;4972795;28;20654;-54
2023/09/29 01:27:49;;;;;;;7.60;4.10;;;18.80;43.80;;;;;;4972833;28;20246;-56
2023/09/29 01:30:19;;;;;;;3.90;2.78;;;18.80;44.00;;;;;;4973102;28;20439;-54
2023/09/29 01:32:50;;;;;;;5.80;5.00;;;18.80;44.30;;;;;;4972676;28;20752;-56
2023/09/29 01:35:27;;;;;;;12.35;2.15;;;18.80;44.10;;;;;;4972905;28;20218;-54
2023/09/29 01:37:54;;;;;;;5.47;3.30;;;18.70;43.80;;;;;;4972697;28;20207;-54
2023/09/29 01:40:21;;;;;;;4.47;2.70;;;18.70;43.80;;;;;;4972853;28;20180;-53
2023/09/29 01:42:47;;;;;;;2.70;1.75;;;18.60;43.70;;;;;;4972667;28;20191;-55
2023/09/29 01:45:16;;;;;;;2.73;2.53;;;18.70;43.80;;;;;;4972889;28;20534;-55
2023/09/29 01:47:45;;;;;;;4.90;3.60;;;18.60;43.80;;;;;;4972758;28;20502;-53
2023/09/29 01:50:12;;;;;;;3.75;3.00;;;18.60;43.90;;;;;;4972792;28;20195;-55
2023/09/29 01:52:41;;;;;;;3.35;3.10;;;18.50;43.90;;;;;;4972520;28;20168;-51
2023/09/29 01:55:14;;;;;;;6.40;4.20;;;18.50;43.90;;;;;;4973065;28;20278;-52
2023/09/29 01:57:42;;;;;;;3.78;3.38;;;18.50;44.10;;;;;;4976392;28;20200;-55
2023/09/29 02:00:28;;;;;;;7.13;3.13;;;18.50;44.10;;;;;;4975038;28;20213;-51
2023/09/29 02:02:55;;;;;;;16.27;4.40;;;18.50;44.10;;;;;;4976016;28;20191;-52
2023/09/29 02:05:21;;;;;;;3.83;3.08;;;18.50;44.00;;;;;;4976426;28;20180;-53
2023/09/29 02:07:50;;;;;;;5.15;4.03;;;18.40;44.00;;;;;;4976151;28;20198;-55
2023/09/29 02:10:19;;;;;;;3.85;3.45;;;18.40;44.20;;;;;;4976284;28;20210;-55
2023/09/29 02:12:53;;;;;;;11.43;5.38;;;18.40;44.20;;;;;;4975990;28;20172;-53
2023/09/29 02:15:19;;;;;;;8.80;4.68;;;18.30;44.00;;;;;;4975938;28;20239;-54
2023/09/29 02:17:48;;;;;;;6.30;5.78;;;18.30;44.30;;;;;;4975894;28;20203;-55
2023/09/29 02:20:15;;;;;;;8.48;4.82;;;18.30;44.40;;;;;;4974703;28;20242;-53
2023/09/29 02:22:42;;;;;;;6.00;4.20;;;18.30;44.30;;;;;;4975791;28;20733;-55
2023/09/29 02:25:12;;;;;;;9.20;3.42;;;18.20;44.30;;;;;;4975946;28;20681;-54
2023/09/29 02:27:38;;;;;;;4.70;3.40;;;18.30;44.20;;;;;;4975701;28;20215;-53
2023/09/29 02:30:04;;;;;;;16.57;4.97;;;18.20;44.30;;;;;;4975630;28;20184;-54
2023/09/29 02:32:30;;;;;;;7.18;4.55;;;18.20;44.30;;;;;;4974424;28;20941;-52
2023/09/29 02:34:56;;;;;;;11.07;5.90;;;18.20;44.30;;;;;;4975748;28;20215;-52
2023/09/29 02:37:22;;;;;;;6.27;4.47;;;18.20;44.40;;;;;;4975770;28;20228;-55
2023/09/29 02:39:47;;;;;;;9.40;5.00;;;18.20;44.30;;;;;;4975602;28;20293;-54
2023/09/29 02:42:13;;;;;;;6.03;3.33;;;18.20;44.10;;;;;;4975441;28;20187;-52
2023/09/29 02:44:39;;;;;;;5.27;4.50;;;18.20;44.10;;;;;;4975475;28;20415;-50
2023/09/29 02:47:06;;;;;;;5.20;4.47;;;18.20;44.20;;;;;;4975639;28;20263;-51
2023/09/29 02:49:33;;;;;;;5.82;3.90;;;18.20;44.20;;;;;;4974350;28;20191;-50
2023/09/29 02:51:59;;;;;;;9.18;5.25;;;18.20;43.90;;;;;;4975691;28;20176;-49
2023/09/29 02:54:25;;;;;;;6.03;3.92;;;18.20;44.10;;;;;;4975229;28;20262;-51
2023/09/29 02:56:51;;;;;;;6.67;5.23;;;18.10;44.00;;;;;;4975231;28;20164;-51
2023/09/29 02:59:17;;;;;;;7.03;4.57;;;18.10;44.80;;;;;;4975079;28;20697;-51
2023/09/29 03:01:44;;;;;;;4.90;2.85;;;18.10;44.30;;;;;;4975108;28;20717;-51
2023/09/29 03:04:10;;;;;;;4.55;3.33;;;18.10;44.10;;;;;;4975054;28;20183;-49
2023/09/29 03:06:36;;;;;;;6.60;4.50;;;18.00;44.00;;;;;;4974949;28;20694;-50
2023/09/29 03:09:02;;;;;;;4.87;2.57;;;18.00;44.30;;;;;;4975030;28;20230;-50
2023/09/29 03:11:27;;;;;;;4.80;3.30;;;18.00;44.20;;;;;;4975006;28;20242;-52
2023/09/29 03:13:54;;;;;;;3.77;3.47;;;18.00;44.10;;;;;;4974692;28;20806;-50
2023/09/29 03:16:26;;;;;;;7.25;4.15;;;18.00;44.00;;;;;;4975109;28;20176;-51
2023/09/29 03:18:52;;;;;;;4.82;3.45;;;18.00;44.20;;;;;;4974881;28;20188;-51
2023/09/29 03:21:18;;;;;;;4.50;1.70;;;18.00;44.10;;;;;;4974889;28;20176;-51
2023/09/29 03:23:45;;;;;;;6.07;3.78;;;18.00;44.10;;;;;;4973507;28;20602;-51
2023/09/29 03:26:22;;;;;;;3.40;3.00;;;18.00;44.10;;;;;;4974537;28;20195;-51
2023/09/29 03:28:49;;;;;;;7.03;3.17;;;18.00;43.90;;;;;;4974839;28;20670;-50
2023/09/29 03:31:16;;;;;;;3.50;3.20;;;18.00;44.30;;;;;;4974842;28;20278;-49
2023/09/29 03:33:42;;;;;;;4.35;2.80;;;17.90;44.50;;;;;;4974436;28;20215;-49
2023/09/29 03:36:08;;;;;;;6.73;3.63;;;17.90;44.70;;;;;;4974681;28;20169;-50
2023/09/29 03:38:34;;;;;;;5.20;3.17;;;17.90;44.70;;;;;;4974489;28;20195;-49
2023/09/29 03:41:00;;;;;;;3.20;1.60;;;17.90;44.20;;;;;;4974527;28;20913;-50
2023/09/29 03:43:26;;;;;;;4.20;2.60;;;17.90;44.20;;;;;;4974603;28;20183;-52
2023/09/29 03:45:53;;;;;;;4.47;2.50;;;17.90;44.30;;;;;;4974712;28;20176;-52
2023/09/29 03:48:20;;;;;;;3.83;2.47;;;17.90;44.10;;;;;;4974519;28;20436;-51
2023/09/29 03:50:49;;;;;;;3.08;2.72;;;17.90;44.20;;;;;;4974559;28;20175;-49
2023/09/29 03:53:16;;;;;;;3.22;1.83;;;17.90;44.10;;;;;;4974231;28;20160;-50
2023/09/29 03:55:43;;;;;;;3.00;2.53;;;17.90;44.30;;;;;;4974439;28;20180;-50
2023/09/29 03:58:09;;;;;;;3.72;2.70;;;17.80;44.10;;;;;;4974242;28;20210;-49
2023/09/29 04:00:36;;;;;;;3.87;2.27;;;17.80;44.10;;;;;;4973048;28;20175;-49
2023/09/29 04:03:01;;;;;;;4.50;2.78;;;17.80;44.10;;;;;;4956771;28;20296;-52
2023/09/29 04:05:28;;;;;;;2.83;1.90;;;17.80;44.10;;;;;;4974131;28;20590;-50
2023/09/29 04:07:53;;;;;;;3.85;2.45;;;17.70;44.40;;;;;;4972648;28;20423;-51
2023/09/29 04:10:20;;;;;;;2.80;1.67;;;17.70;44.30;;;;;;4974232;28;20191;-52
2023/09/29 04:12:47;;;;;;;4.75;3.63;;;17.70;44.30;;;;;;4973835;28;20183;-52
2023/09/29 04:15:14;;;;;;;2.03;1.80;;;17.70;44.50;;;;;;4972685;28;20626;-48
2023/09/29 04:17:40;;;;;;;5.20;3.83;;;17.60;44.50;;;;;;4973607;28;20195;-48
2023/09/29 04:20:07;;;;;;;4.70;2.70;;;17.60;44.30;;;;;;4973531;28;20176;-51
2023/09/29 04:22:34;;;;;;;2.95;2.13;;;17.60;44.30;;;;;;4973696;28;20498;-49
2023/09/29 04:24:59;;;;;;;2.63;2.03;;;17.60;44.20;;;;;;4973980;28;20267;-53
2023/09/29 04:27:26;;;;;;;3.27;2.97;;;17.60;44.10;;;;;;4973652;28;20793;-48
2023/09/29 04:29:52;;;;;;;2.13;1.80;;;17.60;44.10;;;;;;4973714;28;20186;-49
2023/09/29 04:32:18;;;;;;;8.88;3.35;;;17.60;44.20;;;;;;4973553;28;20202;-53
2023/09/29 04:34:44;;;;;;;3.05;2.45;;;17.50;44.60;;;;;;4973569;28;20287;-50
2023/09/29 04:37:10;;;;;;;6.03;3.72;;;17.50;44.60;;;;;;4972176;28;20238;-51
2023/09/29 04:39:37;;;;;;;4.20;2.80;;;17.50;44.50;;;;;;4973652;28;20646;-52
2023/09/29 04:42:07;;;;;;;3.65;2.08;;;17.60;44.50;;;;;;4973303;28;20939;-49
2023/09/29 04:44:33;;;;;;;5.28;2.75;;;17.50;44.20;;;;;;4973478;28;20188;-49
2023/09/29 04:46:59;;;;;;;3.40;2.60;;;17.60;44.40;;;;;;4973326;28;20194;-49
2023/09/29 04:49:25;;;;;;;3.60;1.98;;;17.60;44.30;;;;;;4973267;28;20909;-51
2023/09/29 04:51:51;;;;;;;4.50;4.03;;;17.60;44.50;;;;;;4973277;28;20203;-51
2023/09/29 04:54:16;;;;;;;5.03;2.67;;;17.50;44.60;;;;;;4973291;28;20222;-48
2023/09/29 04:56:42;;;;;;;2.80;2.60;;;17.50;44.40;;;;;;4973215;28;20180;-51
2023/09/29 04:59:08;;;;;;;3.43;2.00;;;17.50;44.20;;;;;;4973154;28;20195;-52
2023/09/29 05:01:36;;;;;;;2.83;2.55;;;17.50;44.20;;;;;;4973158;28;20416;-51
2023/09/29 05:04:02;;;;;;;2.22;1.75;;;17.40;44.10;;;;;;4972920;28;20190;-49
2023/09/29 05:06:28;;;;;;;4.78;3.47;;;17.40;44.10;;;;;;4973564;28;20223;-51
2023/09/29 05:08:54;;;;;;;2.70;2.40;;;17.40;44.40;;;;;;4973208;28;20210;-48
2023/09/29 05:11:21;;;;;;;3.43;3.03;;;17.30;44.60;;;;;;4973141;28;20172;-50
2023/09/29 05:13:47;;;;;;;4.55;2.78;;;17.30;44.50;;;;;;4972776;28;20196;-54
2023/09/29 05:16:13;;;;;;;3.97;2.50;;;17.30;44.80;;;;;;4973081;28;20183;-50
2023/09/29 05:18:39;;;;;;;28.73;2.40;;;17.30;44.70;;;;;;4972809;28;20187;-50
2023/09/29 05:21:05;;;;;;;4.70;3.03;;;17.30;45.40;;;;;;4973279;28;20180;-54
2023/09/29 05:23:31;;;;;;;3.42;3.03;;;17.30;44.80;;;;;;4972939;28;20223;-50
2023/09/29 05:26:01;;;;;;;3.83;2.13;;;17.40;44.70;;;;;;4972893;28;20176;-51
2023/09/29 05:28:27;;;;;;;4.63;3.20;;;17.40;45.00;;;;;;4972933;28;20204;-52
2023/09/29 05:30:54;;;;;;;4.00;3.10;;;17.40;45.30;;;;;;4974261;28;20180;-52
2023/09/29 05:33:20;;;;;;;5.18;3.83;;;17.40;45.00;;;;;;4976572;28;20909;-49
2023/09/29 05:35:48;;;;;;;2.80;2.30;;;17.40;45.30;;;;;;4977003;28;20191;-49
2023/09/29 05:38:14;;;;;;;5.03;3.20;;;17.50;45.20;;;;;;4976690;28;20518;-48
2023/09/29 05:40:40;;;;;;;4.40;2.20;;;17.60;45.40;;;;;;4976751;28;20279;-53
2023/09/29 05:43:09;;;;;;;2.60;2.10;;;17.60;45.40;;;;;;4976527;28;20178;-49
2023/09/29 05:45:36;;;;;;;3.88;2.55;;;17.60;45.50;;;;;;4976507;28;20831;-53
2023/09/29 05:48:03;;;;;;;3.50;2.63;;;17.70;45.80;;;;;;4975172;28;20692;-51
2023/09/29 05:50:28;;;;;;;2.70;2.13;;;17.70;45.80;;;;;;4976658;28;20176;-48
2023/09/29 05:52:56;;;;;;;7.20;2.90;;;17.80;45.70;;;;;;4976417;28;20184;-48
2023/09/29 05:55:22;;;;;;;3.20;2.90;;;17.80;45.40;;;;;;4976439;28;20192;-52
2023/09/29 05:57:49;;;;;;;3.67;2.30;;;17.90;45.60;;;;;;4976402;28;20199;-50
2023/09/29 06:00:16;;;;;;;3.38;3.08;;;18.00;45.60;;;;;;4976231;28;20172;-51
2023/09/29 06:02:42;;;;;;;4.75;2.10;;;18.20;45.70;;;;;;4976361;28;20191;-49
2023/09/29 06:05:09;;;;;;;3.53;3.00;;;18.30;45.70;;;;;;4976417;28;20187;-48
2023/09/29 06:07:35;;;;;;;3.28;2.00;;;18.40;45.20;;;;;;4976292;28;20278;-53
2023/09/29 06:10:02;;;;;;;5.70;2.40;;;18.50;45.60;;;;;;4976156;28;20697;-53
2023/09/29 06:12:28;;;;;;;4.28;2.00;;;18.60;45.70;;;;;;4975840;28;20658;-49
2023/09/29 06:14:54;;;;;;;5.45;3.50;;;18.80;45.80;;;;;;4975978;28;20215;-51
2023/09/29 06:17:20;;;;;;;3.43;2.63;;;18.90;45.70;;;;;;4975994;28;20199;-49
2023/09/29 06:19:45;;;;;;;4.13;2.80;;;19.00;45.70;;;;;;4975968;28;20176;-52
2023/09/29 06:22:11;;;;;;;2.80;1.90;;;19.10;45.40;;;;;;4975926;28;20263;-52
2023/09/29 06:24:37;;;;;;;3.43;2.57;;;19.20;45.30;;;;;;4976102;28;20176;-49
2023/09/29 06:27:03;;;;;;;2.90;2.53;;;19.30;45.20;;;;;;4975717;28;20535;-51
2023/09/29 06:29:29;;;;;;;6.07;2.83;;;19.40;45.00;;;;;;4976068;28;20275;-52
2023/09/29 06:31:55;;;;;;;5.65;3.00;;;19.60;45.10;;;;;;4975834;28;20176;-49
2023/09/29 06:34:21;;;;;;;6.93;4.03;;;19.70;44.90;;;;;;4975740;28;20210;-49
2023/09/29 06:36:46;;;;;;;3.07;2.60;;;19.80;44.70;;;;;;4975979;28;20168;-52
2023/09/29 06:39:12;;;;;;;2.83;2.40;;;19.90;44.80;;;;;;4975551;28;20263;-51
2023/09/29 06:41:38;;;;;;;6.00;3.00;;;20.10;44.80;;;;;;4974998;28;20215;-52
2023/09/29 06:44:05;;;;;;;3.58;2.20;;;20.20;44.80;;;;;;4975331;28;20172;-50
2023/09/29 06:46:30;;;;;;;4.50;2.08;;;20.20;44.80;;;;;;4975577;28;20262;-49
2023/09/29 06:48:56;;;;;;;3.60;2.60;;;20.40;45.00;;;;;;4975422;28;20274;-52
2023/09/29 06:51:22;;;;;;;5.20;3.70;;;20.50;45.00;;;;;;4975589;28;20262;-50
2023/09/29 06:53:48;;;;;;;6.50;3.47;;;20.70;45.10;;;;;;4975238;28;20558;-50
2023/09/29 06:56:13;;;;;;;4.83;3.13;;;20.80;45.00;;;;;;4974168;28;20373;-51
2023/09/29 06:58:39;;;;;;;4.23;3.83;;;20.90;45.00;;;;;;4975195;28;20319;-51
2023/09/29 07:01:05;;;;;;;3.87;2.80;;;21.00;44.60;;;;;;4975325;28;20227;-49
2023/09/29 07:03:31;;;;;;;6.80;3.80;;;21.20;44.80;;;;;;4973939;28;20172;-50
2023/09/29 07:06:01;;;;;;;3.90;3.17;;;21.20;44.80;;;;;;4973939;28;20255;-52
2023/09/29 07:08:27;;;;;;;2.90;2.57;;;21.40;44.80;;;;;;4975003;28;20564;-49
2023/09/29 07:10:54;;;;;;;4.93;3.53;;;21.50;44.90;;;;;;4975146;28;20431;-50
2023/09/29 07:13:20;;;;;;;5.87;4.10;;;21.60;44.90;;;;;;4974915;28;20407;-50
2023/09/29 07:15:46;;;;;;;5.17;3.73;;;21.80;44.50;;;;;;4974968;28;20453;-51
2023/09/29 07:18:13;;;;;;;3.60;2.77;;;21.90;44.50;;;;;;4975086;28;20203;-52
2023/09/29 07:20:39;;;;;;;3.30;2.13;;;22.00;44.20;;;;;;4974780;28;20819;-51
2023/09/29 07:23:08;;;;;;;3.83;2.77;;;22.20;44.30;;;;;;4974708;28;20404;-50
2023/09/29 07:25:35;;;;;;;5.20;3.23;;;22.20;44.40;;;;;;4974670;28;20421;-54
2023/09/29 07:28:01;;;;;;;7.97;4.30;;;22.40;44.20;;;;;;4974575;28;20464;-54
2023/09/29 07:30:27;;;;;;;5.37;3.10;;;22.50;44.20;;;;;;4974746;28;20404;-50
2023/09/29 07:32:52;;;;;;;5.97;3.70;;;22.70;44.10;;;;;;4974668;28;20704;-50
2023/09/29 07:35:18;;;;;;;5.03;3.57;;;22.80;43.60;;;;;;4974569;28;20196;-52
2023/09/29 07:37:44;;;;;;;6.00;2.93;;;23.00;43.80;;;;;;4974430;28;20188;-51
2023/09/29 07:40:10;;;;;;;4.00;2.67;;;23.20;43.20;;;;;;4974555;28;20427;-53
2023/09/29 07:42:36;;;;;;;5.73;4.40;;;23.30;43.30;;;;;;4974203;28;20263;-52
2023/09/29 07:45:03;;;;;;;4.77;3.73;;;23.40;43.10;;;;;;4974462;28;20507;-53
2023/09/29 07:47:29;;;;;;;4.83;3.03;;;23.50;43.10;;;;;;4974550;28;20343;-50
2023/09/29 07:49:54;;;;;;;4.30;2.90;;;23.70;42.90;;;;;;4974425;28;20474;-54
2023/09/29 07:52:27;;;;;;;3.27;2.60;;;23.80;42.70;;;;;;4973967;28;20172;-54
2023/09/29 07:54:52;;;;;;;7.73;3.03;;;23.90;42.00;;;;;;4973544;28;20208;-52
2023/09/29 07:57:18;;;;;;;3.10;2.47;;;24.00;41.90;;;;;;4974230;28;20442;-52
2023/09/29 07:59:44;;;;;;;4.07;2.80;;;24.00;41.60;;;;;;4972943;28;20203;-55
2023/09/29 08:02:10;;;;;;;3.47;2.50;;;24.00;41.50;;;;;;4974023;28;20255;-53
2023/09/29 08:04:36;;;;;;;2.93;2.63;;;24.00;41.80;;;;;;4974169;28;20173;-53
2023/09/29 08:07:02;;;;;;;4.50;2.57;;;24.20;41.80;;;;;;4973821;28;20453;-55
2023/09/29 08:09:27;;;;;;;4.37;2.63;;;24.30;41.90;;;;;;4974053;28;20172;-52
2023/09/29 08:11:53;;;;;;;5.93;3.23;;;24.40;40.80;;;;;;4974173;28;20419;-52
2023/09/29 08:14:19;;;;;;;3.00;1.83;;;24.50;41.40;;;;;;4973697;28;20203;-54
2023/09/29 08:16:45;;;;;;;3.63;2.23;;;24.60;41.10;;;;;;4973996;28;20173;-52
2023/09/29 08:19:10;;;;;;;5.10;2.77;;;24.60;41.10;;;;;;4973906;28;20195;-51
2023/09/29 08:21:38;;;;;;;7.10;3.30;;;24.70;41.50;;;;;;4973766;28;20195;-54
2023/09/29 08:24:06;;;;;;;6.63;3.03;;;24.70;40.80;;;;;;4973587;28;20176;-54
2023/09/29 08:26:32;;;;;;;5.60;2.87;;;24.90;41.40;;;;;;4973590;28;20434;-52
2023/09/29 08:29:02;;;;;;;11.43;3.80;;;25.00;39.50;;;;;;4973662;28;20435;-54
2023/09/29 08:31:28;;;;;;;9.57;3.73;;;25.10;39.60;;;;;;4973721;28;20409;-55
2023/09/29 08:33:53;;;;;;;4.60;2.37;;;25.10;40.30;;;;;;4973443;28;20454;-52
2023/09/29 08:36:19;;;;;;;3.90;3.47;;;25.20;40.00;;;;;;4973587;28;20415;-52
2023/09/29 08:38:45;;;;;;;4.63;2.80;;;25.30;40.20;;;;;;4973373;28;20271;-57
2023/09/29 08:41:11;;;;;;;7.50;3.10;;;25.50;40.20;;;;;;4973649;28;20422;-54
2023/09/29 08:43:39;;;;;;;3.57;2.70;;;25.60;39.70;;;;;;4973474;28;20172;-54
2023/09/29 08:46:09;;;;;;;6.00;2.27;;;25.80;39.90;;;;;;4973448;28;20964;-56
2023/09/29 08:48:36;;;;;;;4.77;2.47;;;25.90;39.50;;;;;;4973286;28;20440;-54
2023/09/29 08:51:03;;;;;;;3.40;2.67;;;26.00;39.70;;;;;;4973255;28;20774;-51
2023/09/29 08:53:29;;;;;;;4.00;2.87;;;26.10;38.60;;;;;;4973028;28;20411;-56
2023/09/29 08:56:01;;;;;;;5.23;3.50;;;26.20;39.00;;;;;;4973260;28;20427;-53
2023/09/29 08:58:28;;;;;;;3.83;2.77;;;26.30;39.00;;;;;;4973388;28;20545;-54
2023/09/29 09:00:54;;;;;;;4.97;2.87;;;26.30;38.60;;;;;;4973275;28;20431;-54
2023/09/29 09:03:20;;;;;;;3.10;2.20;;;26.50;39.10;;;;;;4973104;28;20775;-52
2023/09/29 09:05:47;;;;;;;4.50;3.77;;;26.60;38.90;;;;;;4972770;28;20415;-55
2023/09/29 09:08:13;;;;;;;3.07;2.00;;;26.70;37.20;;;;;;4973062;28;20679;-53
2023/09/29 09:10:40;;;;;;;3.37;2.50;;;26.80;37.60;;;;;;4973264;28;20423;-53
2023/09/29 09:13:07;;;;;;;3.00;2.33;;;26.90;38.10;;;;;;4973117;28;20411;-52
2023/09/29 09:15:32;;;;;;;3.80;2.73;;;26.90;37.70;;;;;;4973127;28;20517;-56
2023/09/29 09:17:58;;;;;;;2.57;2.20;;;27.00;37.30;;;;;;4973189;28;20838;-51
2023/09/29 09:20:25;;;;;;;3.47;2.67;;;27.00;38.20;;;;;;4972893;28;20183;-52
2023/09/29 09:23:02;;;;;;;4.20;3.10;;;27.00;38.10;;;;;;4973074;28;20426;-54
2023/09/29 09:25:35;;;;;;;2.37;1.93;;;27.10;38.10;;;;;;4973037;28;20407;-53
2023/09/29 09:28:06;;;;;;;2.97;2.53;;;27.10;37.90;;;;;;4972985;28;20854;-56
2023/09/29 09:30:37;;;;;;;5.80;3.07;;;27.20;38.00;;;;;;4972940;28;20929;-53
2023/09/29 09:33:05;;;;;;;3.80;2.50;;;27.20;38.00;;;;;;4972789;28;20419;-57
2023/09/29 09:35:31;;;;;;;3.30;2.50;;;27.40;37.60;;;;;;4972981;28;20458;-52
2023/09/29 09:37:59;;;;;;;3.07;2.37;;;27.40;37.70;;;;;;4972777;28;20438;-53
2023/09/29 09:40:25;;;;;;;5.20;2.70;;;27.50;37.80;;;;;;4971816;28;20419;-55
2023/09/29 09:42:58;;;;;;;6.97;5.50;;;27.50;37.60;;;;;;4972689;28;20829;-56
2023/09/29 09:45:37;;;;;;;3.57;3.00;;;27.60;37.60;;;;;;4972820;28;20411;-54
2023/09/29 09:48:05;;;;;;;3.00;2.23;;;27.70;37.50;;;;;;4972739;28;20439;-53
2023/09/29 09:50:33;;;;;;;4.23;3.23;;;27.70;36.00;;;;;;4972710;28;20486;-56
2023/09/29 09:53:02;;;;;;;3.80;2.50;;;27.80;36.20;;;;;;4972720;28;20414;-54
2023/09/29 09:55:50;;;;;;;1.90;1.70;;;27.90;36.70;;;;;;4972664;28;20459;-55
2023/09/29 09:58:16;;;;;;;3.30;2.20;;;28.10;36.80;;;;;;4973009;28;20431;-54
2023/09/29 10:00:45;;;;;;;2.33;2.13;;;28.20;36.50;;;;;;4972847;28;20415;-55
2023/09/29 10:03:12;;;;;;;2.27;1.83;;;28.30;36.50;;;;;;4972493;28;20482;-55
2023/09/29 10:05:41;;;;;;;3.67;2.87;;;28.30;36.80;;;;;;4972659;28;20411;-55
2023/09/29 10:08:07;;;;;;;3.27;1.80;;;28.40;36.60;;;;;;4972592;28;20427;-54
2023/09/29 10:10:38;;;;;;;3.20;1.80;;;28.50;35.60;;;;;;4972952;28;20814;-54
2023/09/29 10:13:14;;;;;;;2.43;1.50;;;28.50;36.00;;;;;;4972457;28;20415;-54
2023/09/29 10:15:41;;;;;;;2.37;1.30;;;28.60;35.80;;;;;;4972692;28;20485;-56
2023/09/29 10:18:19;;;;;;;2.93;1.80;;;28.60;35.50;;;;;;4975581;28;20431;-52
2023/09/29 10:20:49;;;;;;;2.00;1.30;;;28.70;35.80;;;;;;4975868;28;20407;-56
2023/09/29 10:23:16;;;;;;;2.70;1.30;;;28.70;35.40;;;;;;4975804;28;20421;-57
2023/09/29 10:25:54;;;;;;;2.83;1.77;;;28.80;33.80;;;;;;4975972;28;20435;-52
2023/09/29 10:28:33;;;;;;;3.63;1.77;;;28.90;34.40;;;;;;4975867;28;20435;-53
2023/09/29 10:31:15;;;;;;;2.53;1.23;;;29.00;34.90;;;;;;4975869;28;20413;-56
2023/09/29 10:33:52;;;;;;;1.93;1.13;;;29.00;35.30;;;;;;4975779;28;20419;-54
2023/09/29 10:36:30;;;;;;;1.53;1.30;;;29.10;34.30;;;;;;4975792;28;20423;-56
2023/09/29 10:38:57;;;;;;;2.80;1.40;;;29.20;33.80;;;;;;4975767;28;20486;-53
2023/09/29 10:41:29;;;;;;;1.93;1.37;;;29.30;33.60;;;;;;4975634;28;20407;-55
2023/09/29 10:44:03;;;;;;;2.17;1.47;;;29.50;32.00;;;;;;4975686;28;20403;-57
2023/09/29 10:46:29;;;;;;;3.43;1.93;;;29.50;33.00;;;;;;4975758;28;20431;-54
2023/09/29 10:48:55;;;;;;;2.37;1.10;;;29.60;33.30;;;;;;4975412;28;20466;-56
2023/09/29 10:51:25;;;;;;;1.80;1.43;;;29.60;32.90;;;;;;4975419;28;20187;-52
2023/09/29 10:53:52;;;;;;;2.00;0.90;;;29.70;32.30;;;;;;4975205;28;20271;-56
2023/09/29 10:56:22;;;;;;;2.23;1.37;;;29.70;32.80;;;;;;4975326;28;20504;-54
2023/09/29 10:58:52;;;;;;;1.53;0.87;;;29.70;32.50;;;;;;4975405;28;20440;-54
2023/09/29 11:01:32;;;;;;;1.80;1.20;;;29.70;31.30;;;;;;4975286;28;20413;-56
2023/09/29 11:03:59;;;;;;;1.40;1.10;;;29.70;31.90;;;;;;4975086;28;20501;-54
2023/09/29 11:06:26;;;;;;;2.17;1.37;;;29.70;31.20;;;;;;4975126;28;20415;-56
2023/09/29 11:08:57;;;;;;;1.93;1.10;;;29.70;30.50;;;;;;4975026;28;20940;-56
2023/09/29 11:11:33;;;;;;;2.53;1.20;;;29.80;31.90;;;;;;4975359;28;20416;-53
2023/09/29 11:13:59;;;;;;;2.60;1.67;;;30.00;32.80;;;;;;4974947;28;20471;-55
2023/09/29 11:16:27;;;;;;;2.30;1.70;;;30.10;32.60;;;;;;4975049;28;20410;-54
2023/09/29 11:18:56;;;;;;;4.30;1.40;;;30.20;31.70;;;;;;4974840;28;20487;-53
2023/09/29 11:21:33;;;;;;;1.67;1.57;;;30.30;31.40;;;;;;4975179;28;20415;-57
2023/09/29 11:24:10;;;;;;;6.80;1.70;;;30.40;31.70;;;;;;4974675;28;20844;-54
2023/09/29 11:26:46;;;;;;;1.73;1.37;;;30.40;31.10;;;;;;4974689;28;20513;-56
2023/09/29 11:29:25;;;;;;;2.20;1.50;;;30.40;30.30;;;;;;4974753;28;20439;-55
2023/09/29 11:31:53;;;;;;;1.67;1.13;;;30.40;30.30;;;;;;4974884;28;20556;-55
2023/09/29 11:34:19;;;;;;;2.33;1.50;;;30.40;29.40;;;;;;4974416;28;20459;-57
2023/09/29 11:36:44;;;;;;;1.93;1.57;;;30.40;30.00;;;;;;4974667;28;20472;-55
2023/09/29 11:39:16;;;;;;;3.87;2.00;;;30.40;29.70;;;;;;4974511;28;20790;-54
2023/09/29 11:41:42;;;;;;;2.47;1.60;;;30.40;30.30;;;;;;4974662;28;20175;-56
2023/09/29 11:44:08;;;;;;;4.17;2.00;;;30.50;30.80;;;;;;4974384;28;20800;-54
2023/09/29 11:46:35;;;;;;;2.67;1.70;;;30.50;29.80;;;;;;4974396;28;20550;-53
2023/09/29 11:49:01;;;;;;;3.10;1.83;;;30.50;29.10;;;;;;4974226;28;20206;-54
2023/09/29 11:51:27;;;;;;;3.10;1.87;;;30.50;29.60;;;;;;4974293;28;20507;-57
2023/09/29 11:53:53;;;;;;;2.40;1.57;;;30.50;29.60;;;;;;4974035;28;20433;-55
2023/09/29 11:56:18;;;;;;;2.83;2.30;;;30.80;29.90;;;;;;4974423;28;20225;-57
2023/09/29 11:58:44;;;;;;;2.97;1.63;;;30.50;30.20;;;;;;4974175;28;20699;-55
2023/09/29 12:01:10;;;;;;;3.50;2.13;;;30.50;29.90;;;;;;4974123;28;20195;-57
2023/09/29 12:03:36;;;;;;;2.90;2.30;;;30.60;30.20;;;;;;4974275;28;20175;-54
2023/09/29 12:06:02;;;;;;;2.60;1.33;;;30.60;29.80;;;;;;4974192;28;20437;-55
2023/09/29 12:08:31;;;;;;;2.33;1.27;;;30.60;30.10;;;;;;4974021;28;20941;-57
2023/09/29 12:10:58;;;;;;;2.90;1.70;;;30.60;30.30;;;;;;4974086;28;20417;-53
2023/09/29 12:13:25;;;;;;;2.47;1.50;;;30.50;30.30;;;;;;4973786;28;20763;-54
2023/09/29 12:15:51;;;;;;;2.50;1.43;;;30.50;30.60;;;;;;4973729;28;20455;-57
2023/09/29 12:18:17;;;;;;;1.97;1.20;;;30.50;30.80;;;;;;4973860;28;20427;-54
2023/09/29 12:20:43;;;;;;;2.70;1.80;;;30.50;30.00;;;;;;4973819;28;20415;-54
2023/09/29 12:23:09;;;;;;;2.37;1.40;;;30.60;29.20;;;;;;4973605;28;20407;-55
2023/09/29 12:25:36;;;;;;;4.10;1.97;;;30.50;30.00;;;;;;4973612;28;20211;-52
2023/09/29 12:28:05;;;;;;;3.17;1.50;;;30.50;30.10;;;;;;4973727;28;20440;-55
2023/09/29 12:30:32;;;;;;;3.43;1.60;;;30.50;29.90;;;;;;4973783;28;20420;-54
2023/09/29 12:32:58;;;;;;;3.40;1.70;;;30.40;30.10;;;;;;4973425;28;20407;-52
2023/09/29 12:35:24;;;;;;;3.43;1.40;;;30.40;29.80;;;;;;4973543;28;20458;-57
2023/09/29 12:37:51;;;;;;;2.33;1.77;;;30.40;30.10;;;;;;4973448;28;20279;-52
2023/09/29 12:40:16;;;;;;;2.00;1.23;;;30.40;29.80;;;;;;4972980;28;20407;-52
2023/09/29 12:42:47;;;;;;;6.03;1.67;;;30.30;30.00;;;;;;4973305;28;20908;-54
2023/09/29 12:45:18;;;;;;;3.00;1.87;;;30.30;30.30;;;;;;4973628;28;20420;-53
2023/09/29 12:47:44;;;;;;;2.97;1.80;;;30.30;30.10;;;;;;4973524;28;20810;-54